sensor_id;sensor_type;location;lat;lon;timestamp;P1;durP1;ratioP1;P2;durP2;ratioP2
68106;SDS011;54892;47.488;19.026;2022-07-23T00:01:37;5.60;;;2.87;;
68106;SDS011;54892;47.488;19.026;2022-07-23T00:04:40;3.17;;;2.75;;
68106;SDS011;54892;47.488;19.026;2022-07-23T00:07:43;4.57;;;3.12;;
68106;SDS011;54892;47.488;19.026;2022-07-23T00:10:48;7.50;;;3.10;;
68106;SDS011;54892;47.488;19.026;2022-07-23T00:13:51;4.78;;;3.08;;
68106;SDS011;54892;47.488;19.026;2022-07-23T00:16:56;6.37;;;3.28;;
68106;SDS011;54892;47.488;19.026;2022-07-23T00:19:59;7.93;;;3.17;;
68106;SDS011;54892;47.488;19.026;2022-07-23T00:23:03;12.00;;;3.00;;
68106;SDS011;54892;47.488;19.026;2022-07-23T00:26:07;7.30;;;2.85;;
68106;SDS011;54892;47.488;19.026;2022-07-23T00:29:10;7.50;;;2.80;;
68106;SDS011;54892;47.488;19.026;2022-07-23T00:32:13;3.35;;;2.70;;
68106;SDS011;54892;47.488;19.026;2022-07-23T00:35:25;3.40;;;2.80;;
68106;SDS011;54892;47.488;19.026;2022-07-23T00:38:29;6.18;;;3.12;;
68106;SDS011;54892;47.488;19.026;2022-07-23T00:41:34;4.85;;;2.90;;
68106;SDS011;54892;47.488;19.026;2022-07-23T00:44:37;12.07;;;3.12;;
68106;SDS011;54892;47.488;19.026;2022-07-23T00:47:42;9.70;;;2.90;;
68106;SDS011;54892;47.488;19.026;2022-07-23T00:50:45;8.50;;;3.20;;
68106;SDS011;54892;47.488;19.026;2022-07-23T00:53:48;5.43;;;2.80;;
68106;SDS011;54892;47.488;19.026;2022-07-23T00:56:53;5.10;;;2.65;;
68106;SDS011;54892;47.488;19.026;2022-07-23T00:59:57;4.65;;;3.20;;
68106;SDS011;54892;47.488;19.026;2022-07-23T01:03:00;6.90;;;3.30;;
68106;SDS011;54892;47.488;19.026;2022-07-23T01:06:04;4.90;;;2.72;;
68106;SDS011;54892;47.488;19.026;2022-07-23T01:09:07;4.80;;;2.78;;
68106;SDS011;54892;47.488;19.026;2022-07-23T01:12:12;5.62;;;3.20;;
68106;SDS011;54892;47.488;19.026;2022-07-23T01:15:15;5.47;;;3.20;;
68106;SDS011;54892;47.488;19.026;2022-07-23T01:18:18;5.97;;;2.90;;
68106;SDS011;54892;47.488;19.026;2022-07-23T01:21:21;4.28;;;2.97;;
68106;SDS011;54892;47.488;19.026;2022-07-23T01:24:26;6.30;;;3.03;;
68106;SDS011;54892;47.488;19.026;2022-07-23T01:27:29;7.32;;;2.87;;
68106;SDS011;54892;47.488;19.026;2022-07-23T01:30:33;8.23;;;3.20;;
68106;SDS011;54892;47.488;19.026;2022-07-23T01:33:36;5.37;;;3.08;;
68106;SDS011;54892;47.488;19.026;2022-07-23T01:36:39;3.97;;;3.10;;
68106;SDS011;54892;47.488;19.026;2022-07-23T01:39:44;6.20;;;3.25;;
68106;SDS011;54892;47.488;19.026;2022-07-23T01:42:47;4.70;;;3.00;;
68106;SDS011;54892;47.488;19.026;2022-07-23T01:45:50;7.03;;;3.50;;
68106;SDS011;54892;47.488;19.026;2022-07-23T01:48:53;6.32;;;3.47;;
68106;SDS011;54892;47.488;19.026;2022-07-23T01:51:56;6.15;;;3.53;;
68106;SDS011;54892;47.488;19.026;2022-07-23T01:55:04;6.82;;;3.30;;
68106;SDS011;54892;47.488;19.026;2022-07-23T01:58:08;5.93;;;3.35;;
68106;SDS011;54892;47.488;19.026;2022-07-23T02:01:11;7.28;;;3.50;;
68106;SDS011;54892;47.488;19.026;2022-07-23T02:04:14;5.05;;;3.08;;
68106;SDS011;54892;47.488;19.026;2022-07-23T02:07:18;6.62;;;3.20;;
68106;SDS011;54892;47.488;19.026;2022-07-23T02:10:23;5.72;;;3.03;;
68106;SDS011;54892;47.488;19.026;2022-07-23T02:13:26;4.05;;;3.10;;
68106;SDS011;54892;47.488;19.026;2022-07-23T02:16:34;9.38;;;3.50;;
68106;SDS011;54892;47.488;19.026;2022-07-23T02:19:37;7.65;;;3.60;;
68106;SDS011;54892;47.488;19.026;2022-07-23T02:22:40;5.18;;;3.12;;
68106;SDS011;54892;47.488;19.026;2022-07-23T02:25:45;7.72;;;3.47;;
68106;SDS011;54892;47.488;19.026;2022-07-23T02:28:48;9.65;;;3.67;;
68106;SDS011;54892;47.488;19.026;2022-07-23T02:31:51;7.07;;;3.15;;
68106;SDS011;54892;47.488;19.026;2022-07-23T02:34:55;4.28;;;3.00;;
68106;SDS011;54892;47.488;19.026;2022-07-23T02:37:58;8.18;;;3.30;;
68106;SDS011;54892;47.488;19.026;2022-07-23T02:41:03;5.55;;;3.03;;
68106;SDS011;54892;47.488;19.026;2022-07-23T02:44:06;6.75;;;3.45;;
68106;SDS011;54892;47.488;19.026;2022-07-23T02:47:09;13.43;;;3.78;;
68106;SDS011;54892;47.488;19.026;2022-07-23T02:50:12;4.82;;;3.00;;
68106;SDS011;54892;47.488;19.026;2022-07-23T02:53:15;10.23;;;3.15;;
68106;SDS011;54892;47.488;19.026;2022-07-23T02:56:19;32.42;;;4.25;;
68106;SDS011;54892;47.488;19.026;2022-07-23T02:59:23;7.78;;;3.05;;
68106;SDS011;54892;47.488;19.026;2022-07-23T03:02:26;4.70;;;3.22;;
68106;SDS011;54892;47.488;19.026;2022-07-23T03:05:29;4.53;;;3.28;;
68106;SDS011;54892;47.488;19.026;2022-07-23T03:08:32;6.75;;;3.42;;
68106;SDS011;54892;47.488;19.026;2022-07-23T03:11:36;7.53;;;3.12;;
68106;SDS011;54892;47.488;19.026;2022-07-23T03:14:39;4.87;;;3.37;;
68106;SDS011;54892;47.488;19.026;2022-07-23T03:17:43;6.47;;;3.97;;
68106;SDS011;54892;47.488;19.026;2022-07-23T03:20:46;6.55;;;3.40;;
68106;SDS011;54892;47.488;19.026;2022-07-23T03:23:49;7.37;;;3.12;;
68106;SDS011;54892;47.488;19.026;2022-07-23T03:26:54;6.25;;;3.35;;
68106;SDS011;54892;47.488;19.026;2022-07-23T03:29:57;7.62;;;3.17;;
68106;SDS011;54892;47.488;19.026;2022-07-23T03:33:01;7.53;;;3.40;;
68106;SDS011;54892;47.488;19.026;2022-07-23T03:36:04;5.10;;;3.12;;
68106;SDS011;54892;47.488;19.026;2022-07-23T03:39:08;7.45;;;3.12;;
68106;SDS011;54892;47.488;19.026;2022-07-23T03:42:12;7.80;;;3.30;;
68106;SDS011;54892;47.488;19.026;2022-07-23T03:45:16;6.70;;;3.25;;
68106;SDS011;54892;47.488;19.026;2022-07-23T03:48:19;7.53;;;3.30;;
68106;SDS011;54892;47.488;19.026;2022-07-23T03:51:22;3.58;;;3.17;;
68106;SDS011;54892;47.488;19.026;2022-07-23T03:54:26;3.50;;;3.20;;
68106;SDS011;54892;47.488;19.026;2022-07-23T03:57:31;5.85;;;3.20;;
68106;SDS011;54892;47.488;19.026;2022-07-23T04:00:35;11.23;;;3.30;;
68106;SDS011;54892;47.488;19.026;2022-07-23T04:03:38;7.93;;;3.33;;
68106;SDS011;54892;47.488;19.026;2022-07-23T04:06:42;7.28;;;3.33;;
68106;SDS011;54892;47.488;19.026;2022-07-23T04:09:45;10.90;;;3.55;;
68106;SDS011;54892;47.488;19.026;2022-07-23T04:12:50;9.25;;;3.30;;
68106;SDS011;54892;47.488;19.026;2022-07-23T04:15:53;8.55;;;3.78;;
68106;SDS011;54892;47.488;19.026;2022-07-23T04:18:56;8.05;;;3.80;;
68106;SDS011;54892;47.488;19.026;2022-07-23T04:22:00;5.03;;;3.10;;
68106;SDS011;54892;47.488;19.026;2022-07-23T04:25:03;8.30;;;3.45;;
68106;SDS011;54892;47.488;19.026;2022-07-23T04:28:08;6.70;;;3.20;;
68106;SDS011;54892;47.488;19.026;2022-07-23T04:31:11;4.82;;;3.03;;
68106;SDS011;54892;47.488;19.026;2022-07-23T04:34:14;5.53;;;3.15;;
68106;SDS011;54892;47.488;19.026;2022-07-23T04:37:17;7.68;;;3.53;;
68106;SDS011;54892;47.488;19.026;2022-07-23T04:40:21;7.18;;;3.42;;
68106;SDS011;54892;47.488;19.026;2022-07-23T04:43:25;8.07;;;3.47;;
68106;SDS011;54892;47.488;19.026;2022-07-23T04:46:29;7.45;;;3.70;;
68106;SDS011;54892;47.488;19.026;2022-07-23T04:49:32;5.28;;;3.53;;
68106;SDS011;54892;47.488;19.026;2022-07-23T04:52:36;6.05;;;3.42;;
68106;SDS011;54892;47.488;19.026;2022-07-23T04:55:39;13.13;;;3.50;;
68106;SDS011;54892;47.488;19.026;2022-07-23T04:58:43;5.78;;;3.25;;
68106;SDS011;54892;47.488;19.026;2022-07-23T05:01:46;8.73;;;3.45;;
68106;SDS011;54892;47.488;19.026;2022-07-23T05:04:50;6.37;;;3.22;;
68106;SDS011;54892;47.488;19.026;2022-07-23T05:07:53;11.75;;;3.58;;
68106;SDS011;54892;47.488;19.026;2022-07-23T05:10:56;6.93;;;3.30;;
68106;SDS011;54892;47.488;19.026;2022-07-23T05:14:00;5.87;;;3.30;;
68106;SDS011;54892;47.488;19.026;2022-07-23T05:17:04;15.32;;;3.95;;
68106;SDS011;54892;47.488;19.026;2022-07-23T05:20:08;5.47;;;3.35;;
68106;SDS011;54892;47.488;19.026;2022-07-23T05:23:12;8.73;;;3.78;;
68106;SDS011;54892;47.488;19.026;2022-07-23T05:26:15;7.85;;;3.20;;
68106;SDS011;54892;47.488;19.026;2022-07-23T05:29:20;9.13;;;3.12;;
68106;SDS011;54892;47.488;19.026;2022-07-23T05:32:23;8.90;;;3.17;;
68106;SDS011;54892;47.488;19.026;2022-07-23T05:35:26;9.32;;;3.37;;
68106;SDS011;54892;47.488;19.026;2022-07-23T05:38:30;6.53;;;3.00;;
68106;SDS011;54892;47.488;19.026;2022-07-23T05:41:34;7.95;;;2.80;;
68106;SDS011;54892;47.488;19.026;2022-07-23T05:44:38;11.15;;;2.95;;
68106;SDS011;54892;47.488;19.026;2022-07-23T05:47:42;7.50;;;2.90;;
68106;SDS011;54892;47.488;19.026;2022-07-23T05:50:46;8.85;;;3.28;;
68106;SDS011;54892;47.488;19.026;2022-07-23T05:53:49;9.05;;;2.90;;
68106;SDS011;54892;47.488;19.026;2022-07-23T05:56:52;7.65;;;2.53;;
68106;SDS011;54892;47.488;19.026;2022-07-23T05:59:57;6.70;;;2.78;;
68106;SDS011;54892;47.488;19.026;2022-07-23T06:03:00;9.40;;;2.92;;
68106;SDS011;54892;47.488;19.026;2022-07-23T06:06:03;4.93;;;2.70;;
68106;SDS011;54892;47.488;19.026;2022-07-23T06:09:07;5.22;;;2.60;;
68106;SDS011;54892;47.488;19.026;2022-07-23T06:12:10;7.72;;;2.70;;
68106;SDS011;54892;47.488;19.026;2022-07-23T06:15:14;5.03;;;2.70;;
68106;SDS011;54892;47.488;19.026;2022-07-23T06:18:17;8.80;;;3.30;;
68106;SDS011;54892;47.488;19.026;2022-07-23T06:21:20;5.97;;;3.47;;
68106;SDS011;54892;47.488;19.026;2022-07-23T06:24:44;10.82;;;3.35;;
68106;SDS011;54892;47.488;19.026;2022-07-23T06:27:47;10.53;;;3.20;;
68106;SDS011;54892;47.488;19.026;2022-07-23T06:30:52;6.00;;;3.25;;
68106;SDS011;54892;47.488;19.026;2022-07-23T06:33:55;5.43;;;2.83;;
68106;SDS011;54892;47.488;19.026;2022-07-23T06:36:58;7.28;;;2.97;;
68106;SDS011;54892;47.488;19.026;2022-07-23T06:40:01;12.27;;;3.30;;
68106;SDS011;54892;47.488;19.026;2022-07-23T06:43:05;9.67;;;3.10;;
68106;SDS011;54892;47.488;19.026;2022-07-23T06:46:09;10.52;;;3.60;;
68106;SDS011;54892;47.488;19.026;2022-07-23T06:49:13;10.00;;;3.45;;
68106;SDS011;54892;47.488;19.026;2022-07-23T06:52:16;6.18;;;3.15;;
68106;SDS011;54892;47.488;19.026;2022-07-23T06:55:19;13.60;;;3.47;;
68106;SDS011;54892;47.488;19.026;2022-07-23T06:58:22;7.80;;;3.30;;
68106;SDS011;54892;47.488;19.026;2022-07-23T07:01:27;9.52;;;3.10;;
68106;SDS011;54892;47.488;19.026;2022-07-23T07:04:30;9.55;;;3.80;;
68106;SDS011;54892;47.488;19.026;2022-07-23T07:07:33;15.57;;;3.55;;
68106;SDS011;54892;47.488;19.026;2022-07-23T07:10:36;12.73;;;3.95;;
68106;SDS011;54892;47.488;19.026;2022-07-23T07:13:39;15.23;;;3.53;;
68106;SDS011;54892;47.488;19.026;2022-07-23T07:16:44;88.30;;;8.30;;
68106;SDS011;54892;47.488;19.026;2022-07-23T07:19:47;68.78;;;7.00;;
68106;SDS011;54892;47.488;19.026;2022-07-23T07:22:50;95.72;;;9.00;;
68106;SDS011;54892;47.488;19.026;2022-07-23T07:25:53;55.40;;;7.57;;
68106;SDS011;54892;47.488;19.026;2022-07-23T07:28:56;14.57;;;3.62;;
68106;SDS011;54892;47.488;19.026;2022-07-23T07:32:01;5.75;;;3.05;;
68106;SDS011;54892;47.488;19.026;2022-07-23T07:38:07;8.68;;;3.10;;
68106;SDS011;54892;47.488;19.026;2022-07-23T07:41:11;5.63;;;2.53;;
68106;SDS011;54892;47.488;19.026;2022-07-23T07:44:14;7.57;;;2.92;;
68106;SDS011;54892;47.488;19.026;2022-07-23T07:47:19;11.65;;;2.90;;
68106;SDS011;54892;47.488;19.026;2022-07-23T07:50:22;14.48;;;3.17;;
68106;SDS011;54892;47.488;19.026;2022-07-23T07:53:25;10.98;;;2.87;;
68106;SDS011;54892;47.488;19.026;2022-07-23T07:56:29;10.85;;;3.20;;
68106;SDS011;54892;47.488;19.026;2022-07-23T07:59:32;10.13;;;3.20;;
68106;SDS011;54892;47.488;19.026;2022-07-23T08:02:43;9.47;;;3.00;;
68106;SDS011;54892;47.488;19.026;2022-07-23T08:05:48;6.40;;;2.60;;
68106;SDS011;54892;47.488;19.026;2022-07-23T08:08:51;9.27;;;3.10;;
68106;SDS011;54892;47.488;19.026;2022-07-23T08:11:54;8.35;;;2.95;;
68106;SDS011;54892;47.488;19.026;2022-07-23T08:14:57;9.52;;;2.95;;
68106;SDS011;54892;47.488;19.026;2022-07-23T08:18:02;14.47;;;3.03;;
68106;SDS011;54892;47.488;19.026;2022-07-23T08:21:05;9.18;;;3.05;;
68106;SDS011;54892;47.488;19.026;2022-07-23T08:24:09;15.60;;;3.65;;
68106;SDS011;54892;47.488;19.026;2022-07-23T08:27:12;8.00;;;3.03;;
68106;SDS011;54892;47.488;19.026;2022-07-23T08:30:16;7.82;;;2.87;;
68106;SDS011;54892;47.488;19.026;2022-07-23T08:33:21;12.82;;;3.42;;
68106;SDS011;54892;47.488;19.026;2022-07-23T08:36:24;7.35;;;3.28;;
68106;SDS011;54892;47.488;19.026;2022-07-23T08:39:29;8.77;;;3.45;;
68106;SDS011;54892;47.488;19.026;2022-07-23T08:42:32;9.38;;;3.20;;
68106;SDS011;54892;47.488;19.026;2022-07-23T08:45:37;10.52;;;3.20;;
68106;SDS011;54892;47.488;19.026;2022-07-23T08:48:42;12.02;;;3.10;;
68106;SDS011;54892;47.488;19.026;2022-07-23T08:51:46;8.88;;;3.10;;
68106;SDS011;54892;47.488;19.026;2022-07-23T08:54:50;7.45;;;3.58;;
68106;SDS011;54892;47.488;19.026;2022-07-23T08:57:54;15.13;;;3.25;;
68106;SDS011;54892;47.488;19.026;2022-07-23T09:00:58;4.82;;;2.55;;
68106;SDS011;54892;47.488;19.026;2022-07-23T09:04:03;6.55;;;2.80;;
68106;SDS011;54892;47.488;19.026;2022-07-23T09:07:06;5.15;;;2.62;;
68106;SDS011;54892;47.488;19.026;2022-07-23T09:10:10;9.20;;;3.10;;
68106;SDS011;54892;47.488;19.026;2022-07-23T09:16:39;4.70;;;2.22;;
68106;SDS011;54892;47.488;19.026;2022-07-23T09:19:44;7.37;;;2.58;;
68106;SDS011;54892;47.488;19.026;2022-07-23T09:22:48;7.95;;;2.95;;
68106;SDS011;54892;47.488;19.026;2022-07-23T09:25:52;6.20;;;2.22;;
68106;SDS011;54892;47.488;19.026;2022-07-23T09:28:56;6.95;;;2.70;;
68106;SDS011;54892;47.488;19.026;2022-07-23T09:32:02;6.43;;;2.78;;
68106;SDS011;54892;47.488;19.026;2022-07-23T09:35:10;9.57;;;2.37;;
68106;SDS011;54892;47.488;19.026;2022-07-23T09:38:13;7.30;;;2.75;;
68106;SDS011;54892;47.488;19.026;2022-07-23T09:41:17;2.95;;;2.47;;
68106;SDS011;54892;47.488;19.026;2022-07-23T09:44:20;7.68;;;2.58;;
68106;SDS011;54892;47.488;19.026;2022-07-23T09:47:28;8.00;;;2.80;;
68106;SDS011;54892;47.488;19.026;2022-07-23T09:50:35;8.40;;;2.62;;
68106;SDS011;54892;47.488;19.026;2022-07-23T09:53:38;4.40;;;2.62;;
68106;SDS011;54892;47.488;19.026;2022-07-23T09:56:41;5.90;;;2.80;;
68106;SDS011;54892;47.488;19.026;2022-07-23T10:02:49;6.05;;;2.80;;
68106;SDS011;54892;47.488;19.026;2022-07-23T10:05:53;8.57;;;2.90;;
68106;SDS011;54892;47.488;19.026;2022-07-23T10:08:58;3.92;;;2.42;;
68106;SDS011;54892;47.488;19.026;2022-07-23T10:12:05;6.68;;;2.70;;
68106;SDS011;54892;47.488;19.026;2022-07-23T10:15:38;13.62;;;2.87;;
68106;SDS011;54892;47.488;19.026;2022-07-23T10:18:42;6.20;;;3.10;;
68106;SDS011;54892;47.488;19.026;2022-07-23T10:21:48;10.02;;;3.53;;
68106;SDS011;54892;47.488;19.026;2022-07-23T10:24:59;6.00;;;3.00;;
68106;SDS011;54892;47.488;19.026;2022-07-23T10:28:18;10.20;;;3.00;;
68106;SDS011;54892;47.488;19.026;2022-07-23T10:31:31;14.38;;;3.28;;
68106;SDS011;54892;47.488;19.026;2022-07-23T10:34:58;6.60;;;3.00;;
68106;SDS011;54892;47.488;19.026;2022-07-23T10:38:13;10.65;;;3.10;;
68106;SDS011;54892;47.488;19.026;2022-07-23T10:41:30;7.32;;;2.95;;
68106;SDS011;54892;47.488;19.026;2022-07-23T10:44:37;6.55;;;3.40;;
68106;SDS011;54892;47.488;19.026;2022-07-23T10:47:42;4.57;;;2.90;;
68106;SDS011;54892;47.488;19.026;2022-07-23T10:54:21;6.93;;;2.85;;
68106;SDS011;54892;47.488;19.026;2022-07-23T11:00:28;8.95;;;2.90;;
68106;SDS011;54892;47.488;19.026;2022-07-23T11:03:33;9.85;;;3.20;;
68106;SDS011;54892;47.488;19.026;2022-07-23T11:10:28;11.45;;;3.45;;
68106;SDS011;54892;47.488;19.026;2022-07-23T11:13:38;4.72;;;3.08;;
68106;SDS011;54892;47.488;19.026;2022-07-23T11:16:49;10.40;;;3.12;;
68106;SDS011;54892;47.488;19.026;2022-07-23T11:20:12;10.60;;;3.10;;
68106;SDS011;54892;47.488;19.026;2022-07-23T11:23:17;9.45;;;2.67;;
68106;SDS011;54892;47.488;19.026;2022-07-23T11:29:51;15.18;;;3.12;;
68106;SDS011;54892;47.488;19.026;2022-07-23T11:32:54;6.87;;;2.62;;
68106;SDS011;54892;47.488;19.026;2022-07-23T11:36:18;8.23;;;3.20;;
68106;SDS011;54892;47.488;19.026;2022-07-23T11:39:22;5.32;;;3.00;;
68106;SDS011;54892;47.488;19.026;2022-07-23T11:42:29;5.50;;;3.45;;
68106;SDS011;54892;47.488;19.026;2022-07-23T11:45:33;9.40;;;3.42;;
68106;SDS011;54892;47.488;19.026;2022-07-23T11:48:38;5.12;;;3.15;;
68106;SDS011;54892;47.488;19.026;2022-07-23T11:51:41;5.30;;;3.28;;
68106;SDS011;54892;47.488;19.026;2022-07-23T11:54:47;11.15;;;3.08;;
68106;SDS011;54892;47.488;19.026;2022-07-23T11:57:52;6.05;;;3.17;;
68106;SDS011;54892;47.488;19.026;2022-07-23T12:00:56;10.60;;;3.80;;
68106;SDS011;54892;47.488;19.026;2022-07-23T12:03:59;7.25;;;3.22;;
68106;SDS011;54892;47.488;19.026;2022-07-23T12:07:03;6.93;;;3.17;;
68106;SDS011;54892;47.488;19.026;2022-07-23T12:10:09;10.68;;;3.47;;
68106;SDS011;54892;47.488;19.026;2022-07-23T12:13:16;5.97;;;3.30;;
68106;SDS011;54892;47.488;19.026;2022-07-23T12:16:21;14.15;;;3.28;;
68106;SDS011;54892;47.488;19.026;2022-07-23T12:19:25;10.90;;;3.10;;
68106;SDS011;54892;47.488;19.026;2022-07-23T12:22:32;7.85;;;3.72;;
68106;SDS011;54892;47.488;19.026;2022-07-23T12:25:38;9.43;;;4.75;;
68106;SDS011;54892;47.488;19.026;2022-07-23T12:28:44;6.32;;;4.00;;
68106;SDS011;54892;47.488;19.026;2022-07-23T12:31:54;11.45;;;3.40;;
68106;SDS011;54892;47.488;19.026;2022-07-23T12:35:02;6.30;;;3.40;;
68106;SDS011;54892;47.488;19.026;2022-07-23T12:38:08;5.32;;;3.03;;
68106;SDS011;54892;47.488;19.026;2022-07-23T12:41:12;8.85;;;3.40;;
68106;SDS011;54892;47.488;19.026;2022-07-23T12:44:17;9.38;;;3.22;;
68106;SDS011;54892;47.488;19.026;2022-07-23T12:47:20;8.25;;;3.97;;
68106;SDS011;54892;47.488;19.026;2022-07-23T12:50:40;8.43;;;3.30;;
68106;SDS011;54892;47.488;19.026;2022-07-23T12:53:46;9.13;;;3.42;;
68106;SDS011;54892;47.488;19.026;2022-07-23T12:56:50;7.65;;;3.15;;
68106;SDS011;54892;47.488;19.026;2022-07-23T12:59:55;7.68;;;3.40;;
68106;SDS011;54892;47.488;19.026;2022-07-23T13:03:19;4.62;;;2.65;;
68106;SDS011;54892;47.488;19.026;2022-07-23T13:06:24;6.12;;;3.47;;
68106;SDS011;54892;47.488;19.026;2022-07-23T13:09:28;6.30;;;2.87;;
68106;SDS011;54892;47.488;19.026;2022-07-23T13:12:34;5.40;;;2.97;;
68106;SDS011;54892;47.488;19.026;2022-07-23T13:15:39;4.43;;;3.07;;
68106;SDS011;54892;47.488;19.026;2022-07-23T13:18:42;6.65;;;3.17;;
68106;SDS011;54892;47.488;19.026;2022-07-23T13:21:46;9.48;;;3.17;;
68106;SDS011;54892;47.488;19.026;2022-07-23T13:24:49;6.43;;;3.00;;
68106;SDS011;54892;47.488;19.026;2022-07-23T13:27:52;6.62;;;2.80;;
68106;SDS011;54892;47.488;19.026;2022-07-23T13:30:56;7.13;;;3.40;;
68106;SDS011;54892;47.488;19.026;2022-07-23T13:34:00;8.25;;;3.15;;
68106;SDS011;54892;47.488;19.026;2022-07-23T13:37:03;5.97;;;3.00;;
68106;SDS011;54892;47.488;19.026;2022-07-23T13:40:06;6.87;;;3.03;;
68106;SDS011;54892;47.488;19.026;2022-07-23T13:43:11;6.45;;;3.03;;
68106;SDS011;54892;47.488;19.026;2022-07-23T13:46:17;6.18;;;3.05;;
68106;SDS011;54892;47.488;19.026;2022-07-23T13:49:20;5.22;;;3.15;;
68106;SDS011;54892;47.488;19.026;2022-07-23T13:52:24;7.43;;;3.10;;
68106;SDS011;54892;47.488;19.026;2022-07-23T13:55:27;7.97;;;2.90;;
68106;SDS011;54892;47.488;19.026;2022-07-23T13:58:30;4.57;;;3.00;;
68106;SDS011;54892;47.488;19.026;2022-07-23T14:01:34;6.72;;;3.00;;
68106;SDS011;54892;47.488;19.026;2022-07-23T14:04:46;6.80;;;3.75;;
68106;SDS011;54892;47.488;19.026;2022-07-23T14:07:49;8.10;;;3.30;;
68106;SDS011;54892;47.488;19.026;2022-07-23T14:10:53;8.48;;;3.50;;
68106;SDS011;54892;47.488;19.026;2022-07-23T14:13:57;9.38;;;3.78;;
68106;SDS011;54892;47.488;19.026;2022-07-23T14:17:03;5.82;;;3.17;;
68106;SDS011;54892;47.488;19.026;2022-07-23T14:20:07;6.15;;;3.45;;
68106;SDS011;54892;47.488;19.026;2022-07-23T14:23:11;5.30;;;4.07;;
68106;SDS011;54892;47.488;19.026;2022-07-23T14:26:15;6.30;;;3.90;;
68106;SDS011;54892;47.488;19.026;2022-07-23T14:29:18;5.55;;;3.50;;
68106;SDS011;54892;47.488;19.026;2022-07-23T14:32:22;7.65;;;4.07;;
68106;SDS011;54892;47.488;19.026;2022-07-23T14:35:26;8.60;;;3.78;;
68106;SDS011;54892;47.488;19.026;2022-07-23T14:38:29;3.70;;;3.08;;
68106;SDS011;54892;47.488;19.026;2022-07-23T14:41:33;3.42;;;3.00;;
68106;SDS011;54892;47.488;19.026;2022-07-23T14:44:37;4.35;;;2.65;;
68106;SDS011;54892;47.488;19.026;2022-07-23T14:47:41;5.40;;;2.85;;
68106;SDS011;54892;47.488;19.026;2022-07-23T14:50:45;4.03;;;3.50;;
68106;SDS011;54892;47.488;19.026;2022-07-23T14:53:48;4.47;;;3.28;;
68106;SDS011;54892;47.488;19.026;2022-07-23T14:56:51;4.97;;;2.83;;
68106;SDS011;54892;47.488;19.026;2022-07-23T14:59:55;3.58;;;2.90;;
68106;SDS011;54892;47.488;19.026;2022-07-23T15:03:00;7.27;;;3.40;;
68106;SDS011;54892;47.488;19.026;2022-07-23T15:06:03;3.37;;;2.97;;
68106;SDS011;54892;47.488;19.026;2022-07-23T15:09:06;7.05;;;3.08;;
68106;SDS011;54892;47.488;19.026;2022-07-23T15:12:09;4.30;;;3.22;;
68106;SDS011;54892;47.488;19.026;2022-07-23T15:15:13;5.60;;;3.37;;
68106;SDS011;54892;47.488;19.026;2022-07-23T15:18:17;6.65;;;3.20;;
68106;SDS011;54892;47.488;19.026;2022-07-23T15:24:23;6.30;;;3.50;;
68106;SDS011;54892;47.488;19.026;2022-07-23T15:27:26;7.07;;;4.05;;
68106;SDS011;54892;47.488;19.026;2022-07-23T15:30:30;6.63;;;4.23;;
68106;SDS011;54892;47.488;19.026;2022-07-23T15:33:34;6.62;;;4.53;;
68106;SDS011;54892;47.488;19.026;2022-07-23T15:36:38;37.30;;;6.65;;
68106;SDS011;54892;47.488;19.026;2022-07-23T15:39:41;41.13;;;6.40;;
68106;SDS011;54892;47.488;19.026;2022-07-23T15:42:44;45.67;;;7.22;;
68106;SDS011;54892;47.488;19.026;2022-07-23T15:45:47;54.30;;;7.50;;
68106;SDS011;54892;47.488;19.026;2022-07-23T15:48:52;28.33;;;5.90;;
68106;SDS011;54892;47.488;19.026;2022-07-23T15:51:55;35.25;;;5.65;;
68106;SDS011;54892;47.488;19.026;2022-07-23T15:54:59;17.45;;;4.85;;
68106;SDS011;54892;47.488;19.026;2022-07-23T15:58:02;23.58;;;5.00;;
68106;SDS011;54892;47.488;19.026;2022-07-23T16:01:05;11.30;;;4.75;;
68106;SDS011;54892;47.488;19.026;2022-07-23T16:04:10;28.23;;;6.00;;
68106;SDS011;54892;47.488;19.026;2022-07-23T16:07:13;16.55;;;4.87;;
68106;SDS011;54892;47.488;19.026;2022-07-23T16:10:17;12.27;;;4.87;;
68106;SDS011;54892;47.488;19.026;2022-07-23T16:13:22;15.27;;;4.82;;
68106;SDS011;54892;47.488;19.026;2022-07-23T16:16:25;11.48;;;4.82;;
68106;SDS011;54892;47.488;19.026;2022-07-23T16:19:29;22.67;;;5.60;;
68106;SDS011;54892;47.488;19.026;2022-07-23T16:22:33;20.33;;;6.03;;
68106;SDS011;54892;47.488;19.026;2022-07-23T16:25:37;35.07;;;6.10;;
68106;SDS011;54892;47.488;19.026;2022-07-23T16:28:40;18.45;;;5.70;;
68106;SDS011;54892;47.488;19.026;2022-07-23T16:31:43;30.42;;;5.90;;
68106;SDS011;54892;47.488;19.026;2022-07-23T16:34:47;46.35;;;5.80;;
68106;SDS011;54892;47.488;19.026;2022-07-23T16:40:54;17.45;;;5.10;;
68106;SDS011;54892;47.488;19.026;2022-07-23T16:43:58;15.00;;;5.27;;
68106;SDS011;54892;47.488;19.026;2022-07-23T16:47:01;21.30;;;5.22;;
68106;SDS011;54892;47.488;19.026;2022-07-23T16:50:06;25.65;;;4.93;;
68106;SDS011;54892;47.488;19.026;2022-07-23T16:53:10;8.60;;;4.90;;
68106;SDS011;54892;47.488;19.026;2022-07-23T16:56:13;17.92;;;5.15;;
68106;SDS011;54892;47.488;19.026;2022-07-23T16:59:17;11.73;;;5.00;;
68106;SDS011;54892;47.488;19.026;2022-07-23T17:02:20;10.65;;;4.70;;
68106;SDS011;54892;47.488;19.026;2022-07-23T17:05:24;9.02;;;5.40;;
68106;SDS011;54892;47.488;19.026;2022-07-23T17:08:28;11.05;;;5.00;;
68106;SDS011;54892;47.488;19.026;2022-07-23T17:11:31;9.15;;;5.30;;
68106;SDS011;54892;47.488;19.026;2022-07-23T17:14:34;4.45;;;4.05;;
68106;SDS011;54892;47.488;19.026;2022-07-23T17:17:38;7.40;;;4.07;;
68106;SDS011;54892;47.488;19.026;2022-07-23T17:20:42;7.25;;;4.10;;
68106;SDS011;54892;47.488;19.026;2022-07-23T17:23:45;4.60;;;3.60;;
68106;SDS011;54892;47.488;19.026;2022-07-23T17:26:48;6.22;;;3.42;;
68106;SDS011;54892;47.488;19.026;2022-07-23T17:29:52;6.53;;;3.90;;
68106;SDS011;54892;47.488;19.026;2022-07-23T17:32:55;5.43;;;4.12;;
68106;SDS011;54892;47.488;19.026;2022-07-23T17:36:00;7.53;;;4.30;;
68106;SDS011;54892;47.488;19.026;2022-07-23T17:39:04;5.43;;;4.20;;
68106;SDS011;54892;47.488;19.026;2022-07-23T17:42:07;4.85;;;4.20;;
68106;SDS011;54892;47.488;19.026;2022-07-23T17:45:10;5.68;;;4.47;;
68106;SDS011;54892;47.488;19.026;2022-07-23T17:48:17;6.68;;;4.72;;
68106;SDS011;54892;47.488;19.026;2022-07-23T17:51:21;5.65;;;4.35;;
68106;SDS011;54892;47.488;19.026;2022-07-23T17:54:25;6.87;;;4.45;;
68106;SDS011;54892;47.488;19.026;2022-07-23T17:57:28;4.70;;;4.05;;
68106;SDS011;54892;47.488;19.026;2022-07-23T18:00:32;5.20;;;3.72;;
68106;SDS011;54892;47.488;19.026;2022-07-23T18:03:38;5.03;;;3.40;;
68106;SDS011;54892;47.488;19.026;2022-07-23T18:06:43;3.65;;;3.33;;
68106;SDS011;54892;47.488;19.026;2022-07-23T18:09:46;4.97;;;3.47;;
68106;SDS011;54892;47.488;19.026;2022-07-23T18:12:50;4.90;;;3.50;;
68106;SDS011;54892;47.488;19.026;2022-07-23T18:15:53;4.93;;;3.72;;
68106;SDS011;54892;47.488;19.026;2022-07-23T18:18:56;4.37;;;3.92;;
68106;SDS011;54892;47.488;19.026;2022-07-23T18:22:01;4.95;;;4.32;;
68106;SDS011;54892;47.488;19.026;2022-07-23T18:28:08;4.85;;;4.35;;
68106;SDS011;54892;47.488;19.026;2022-07-23T18:31:12;5.68;;;4.75;;
68106;SDS011;54892;47.488;19.026;2022-07-23T18:34:16;8.45;;;4.45;;
68106;SDS011;54892;47.488;19.026;2022-07-23T18:37:20;5.68;;;4.62;;
68106;SDS011;54892;47.488;19.026;2022-07-23T18:40:23;8.98;;;4.80;;
68106;SDS011;54892;47.488;19.026;2022-07-23T18:43:26;5.10;;;4.00;;